Time;durP1;ratioP1;P1;durP2;ratioP2;P2;SDS_P1;SDS_P2;PMS_P1;PMS_P2;Temp;Humidity;BMP_temperature;BMP_pressure;BME280_temperature;BME280_humidity;BME280_pressure;Samples;Min_cycle;Max_cycle;Signal;HPM_P1;HPM_P2
2023/12/20 00:04:26;;;;;;;5.45;3.22;;;;;;;0.31;100.00;101236.66;10207070;29;20051;-74
2023/12/20 00:09:27;;;;;;;5.60;3.50;;;;;;;0.30;100.00;101244.56;10206824;29;20047;-73
2023/12/20 00:14:28;;;;;;;7.00;3.97;;;;;;;0.31;100.00;101236.66;10206767;29;20063;-74
2023/12/20 00:19:28;;;;;;;9.93;4.00;;;;;;;-0.13;100.00;101171.88;10211088;29;20043;-74
2023/12/20 00:24:29;;;;;;;5.53;3.42;;;;;;;0.04;100.00;101218.03;10212752;29;20043;-73
2023/12/20 00:29:30;;;;;;;6.10;3.55;;;;;;;0.02;100.00;101245.97;10212482;29;20126;-74
2023/12/20 00:34:31;;;;;;;8.52;3.65;;;;;;;0.09;100.00;101264.78;10212989;29;20420;-73
2023/12/20 00:39:32;;;;;;;6.22;3.53;;;;;;;0.10;100.00;101256.88;10213115;28;20086;-73
2023/12/20 00:44:33;;;;;;;5.38;3.35;;;;;;;-0.27;100.00;101196.09;10211130;29;20067;-73
2023/12/20 00:49:34;;;;;;;7.97;3.80;;;;;;;0.12;100.00;101257.66;10212439;29;20071;-73
2023/12/20 00:54:35;;;;;;;7.25;3.83;;;;;;;-0.35;100.00;101185.19;10211674;29;20051;-73
2023/12/20 00:59:36;;;;;;;6.20;3.40;;;;;;;-0.29;100.00;101228.41;10211459;29;20134;-72
2023/12/20 01:04:37;;;;;;;5.22;3.33;;;;;;;-0.18;100.00;101231.34;10211950;29;20568;-73
2023/12/20 01:09:38;;;;;;;6.32;3.60;;;;;;;-0.22;100.00;101228.94;10211231;29;20066;-73
2023/12/20 01:14:39;;;;;;;6.30;3.50;;;;;;;-0.27;100.00;101222.19;10269547;28;20130;-73
2023/12/20 01:19:40;;;;;;;4.80;2.97;;;;;;;-0.24;100.00;101221.16;10210942;29;20209;-73
2023/12/20 01:24:40;;;;;;;9.38;3.80;;;;;;;-0.34;100.00;101212.97;10210941;29;20177;-73
2023/12/20 01:29:41;;;;;;;7.80;3.35;;;;;;;-0.39;100.00;101201.94;10209314;29;20101;-73
2023/12/20 01:34:42;;;;;;;5.05;3.08;;;;;;;-0.70;100.00;101169.50;10210312;29;20043;-74
2023/12/20 01:39:43;;;;;;;10.40;3.70;;;;;;;-0.50;100.00;101206.84;10210999;29;20066;-73
2023/12/20 01:44:44;;;;;;;5.63;3.05;;;;;;;-0.80;100.00;101143.97;10245944;28;20460;-72
2023/12/20 01:49:45;;;;;;;9.27;3.15;;;;;;;-0.52;100.00;101178.19;10281911;28;20038;-74
2023/12/20 01:54:47;;;;;;;6.40;3.53;;;;;;;-0.48;100.00;101199.75;10417407;28;20120;-73
2023/12/20 01:59:48;;;;;;;7.35;3.50;;;;;;;-0.31;100.00;101206.75;10402579;28;20507;-73
2023/12/20 02:04:50;;;;;;;5.53;3.50;;;;;;;-0.39;100.00;101208.88;10209578;29;20122;-74
2023/12/20 02:09:52;;;;;;;8.77;3.88;;;;;;;-0.46;100.00;101210.97;10241461;29;20560;-74
2023/12/20 02:14:53;;;;;;;6.68;3.17;;;;;;;-0.66;100.00;101201.50;10248120;29;20043;-74
2023/12/20 02:19:54;;;;;;;6.57;3.30;;;;;;;-0.81;100.00;101184.81;10248492;28;20051;-74
2023/12/20 02:24:55;;;;;;;9.48;3.85;;;;;;;-0.65;100.00;101198.00;10271037;28;20058;-77
2023/12/20 02:29:56;;;;;;;7.32;3.80;;;;;;;-0.49;100.00;101230.22;10275772;28;20040;-74
2023/12/20 02:34:58;;;;;;;6.80;3.40;;;;;;;-1.01;100.00;101157.13;10213761;28;20075;-74
2023/12/20 02:39:59;;;;;;;16.35;3.55;;;;;;;-0.79;100.00;101205.63;10387062;28;20052;-75
2023/12/20 02:45:00;;;;;;;6.60;2.85;;;;;;;-0.78;100.00;101218.63;10404462;28;20043;-75
2023/12/20 02:50:00;;;;;;;6.75;3.70;;;;;;;-0.72;100.00;101205.28;10406116;28;20057;-75
2023/12/20 02:55:01;;;;;;;11.20;3.90;;;;;;;-0.75;100.00;101223.69;10407669;28;20045;-75
2023/12/20 03:00:02;;;;;;;9.10;5.55;;;;;;;-0.64;100.00;101217.94;10408836;28;20041;-75
2023/12/20 03:05:03;;;;;;;16.75;4.88;;;;;;;-0.65;100.00;101224.09;10414594;28;20052;-74
2023/12/20 03:10:06;;;;;;;11.40;5.20;;;;;;;-0.75;100.00;101212.38;10414355;28;20045;-74
2023/12/20 03:15:07;;;;;;;9.35;5.18;;;;;;;-0.71;100.00;101230.44;10394932;28;20034;-76
2023/12/20 03:20:08;;;;;;;10.13;5.38;;;;;;;-1.01;100.00;101171.94;10232039;28;20089;-78
2023/12/20 03:25:09;;;;;;;17.85;5.60;;;;;;;-0.86;100.00;101209.47;10207314;29;20408;-71
2023/12/20 03:30:10;;;;;;;11.77;4.63;;;;;;;-0.79;100.00;101229.94;10206354;29;20046;-77
2023/12/20 03:35:11;;;;;;;12.18;4.25;;;;;;;-0.75;100.00;101239.34;10205830;29;20039;-75
2023/12/20 03:40:12;;;;;;;8.82;4.28;;;;;;;-1.01;100.00;101196.22;10207273;29;20067;-73
2023/12/20 03:45:13;;;;;;;7.90;5.00;;;;;;;-0.69;100.00;101248.63;10206490;29;20066;-74
2023/12/20 03:50:14;;;;;;;7.82;3.83;;;;;;;-1.01;100.00;101190.19;10206655;29;20126;-76
2023/12/20 03:55:15;;;;;;;14.40;7.72;;;;;;;-0.72;100.00;101243.53;10206227;29;20047;-75
2023/12/20 04:00:16;;;;;;;9.45;5.75;;;;;;;-0.85;100.00;101232.00;10206845;29;20043;-81
2023/12/20 04:05:17;;;;;;;9.48;5.25;;;;;;;-0.87;100.00;101239.06;10231295;28;20048;-80
2023/12/20 04:10:18;;;;;;;16.73;5.60;;;;;;;-1.02;100.00;101235.41;10368735;28;20051;-76
2023/12/20 04:15:18;;;;;;;17.05;6.18;;;;;;;-1.01;100.00;101239.72;10410645;28;20099;-73
2023/12/20 04:20:19;;;;;;;27.40;6.20;;;;;;;-1.41;100.00;101173.78;10413121;28;20578;-77
2023/12/20 04:25:20;;;;;;;13.85;6.75;;;;;;;-0.98;100.00;101250.84;10411704;28;20050;-80
2023/12/20 04:30:21;;;;;;;17.40;7.88;;;;;;;-1.00;100.00;101247.47;10412082;28;20092;-75
2023/12/20 04:35:22;;;;;;;24.17;7.07;;;;;;;-1.03;100.00;101260.66;10412007;28;20052;-78
2023/12/20 04:40:23;;;;;;;13.60;6.95;;;;;;;-1.03;100.00;101242.41;10381070;28;20057;-70
2023/12/20 04:45:24;;;;;;;11.60;6.10;;;;;;;-0.94;100.00;101248.94;10249271;28;20110;-73
2023/12/20 04:50:26;;;;;;;28.35;5.53;;;;;;;-1.01;100.00;101243.19;10256937;28;20142;-70
2023/12/20 04:55:27;;;;;;;18.08;5.90;;;;;;;-0.90;100.00;101249.63;10392433;28;20133;-70
2023/12/20 05:00:27;;;;;;;15.00;6.22;;;;;;;-0.93;100.00;101250.63;10410772;28;20133;-73
2023/12/20 05:05:28;;;;;;;11.43;6.38;;;;;;;-0.79;100.00;101249.97;10418141;28;20042;-70
2023/12/20 05:10:29;;;;;;;12.38;6.88;;;;;;;-0.63;100.00;101274.41;10419767;28;20140;-70
2023/12/20 05:15:30;;;;;;;15.30;5.53;;;;;;;-0.58;100.00;101282.03;10419400;28;20208;-70
2023/12/20 05:20:31;;;;;;;22.60;7.30;;;;;;;-0.51;100.00;101283.41;10418571;28;20045;-71
2023/12/20 05:25:32;;;;;;;43.45;7.70;;;;;;;-0.28;100.00;101305.81;10418980;28;20041;-70
2023/12/20 05:30:33;;;;;;;33.45;6.38;;;;;;;-0.20;100.00;101310.66;10418989;28;20041;-71
2023/12/20 05:35:34;;;;;;;52.17;7.32;;;;;;;-0.13;100.00;101309.44;10418821;28;20099;-71
2023/12/20 05:40:35;;;;;;;25.75;5.80;;;;;;;-0.29;100.00;101264.97;10417513;28;20053;-71
2023/12/20 05:45:36;;;;;;;43.13;6.65;;;;;;;0.14;100.00;101322.88;10418787;28;20056;-71
2023/12/20 05:50:37;;;;;;;123.60;7.95;;;;;;;0.32;100.00;101315.88;10416411;28;20038;-71
2023/12/20 05:55:37;;;;;;;128.73;9.50;;;;;;;0.36;100.00;101315.66;10417920;28;20046;-71
2023/12/20 06:00:38;;;;;;;143.05;9.77;;;;;;;0.39;100.00;101315.50;10417073;28;20044;-72
2023/12/20 06:05:39;;;;;;;132.55;16.17;;;;;;;0.31;100.00;101294.13;10417404;28;20113;-71
2023/12/20 06:10:40;;;;;;;332.80;46.35;;;;;;;0.53;100.00;101309.56;10416805;28;20103;-71
2023/12/20 06:15:41;;;;;;;571.55;76.93;;;;;;;0.67;100.00;101308.84;10415977;28;20128;-71
2023/12/20 06:20:42;;;;;;;250.13;22.90;;;;;;;0.53;100.00;101240.72;10416866;28;20053;-70
2023/12/20 06:25:43;;;;;;;317.92;15.65;;;;;;;0.78;100.00;101240.25;10416486;28;20091;-73
2023/12/20 06:30:45;;;;;;;259.33;17.13;;;;;;;1.22;100.00;101279.69;10416678;28;20485;-72
2023/12/20 06:35:46;;;;;;;243.38;20.52;;;;;;;1.46;100.00;101293.19;10416106;28;20038;-72
2023/12/20 06:40:47;;;;;;;174.82;18.60;;;;;;;1.67;100.00;101285.03;10416433;28;20057;-72
2023/12/20 06:45:48;;;;;;;112.55;21.23;;;;;;;1.69;100.00;101252.59;10415321;28;20041;-72
2023/12/20 06:50:48;;;;;;;158.15;25.67;;;;;;;1.85;100.00;101259.56;10416793;28;20045;-71
2023/12/20 06:55:49;;;;;;;27.27;13.85;;;;;;;2.22;100.00;101280.06;10414823;28;20490;-72
2023/12/20 07:00:51;;;;;;;59.33;8.02;;;;;;;2.07;100.00;101223.31;10414880;28;20524;-71
2023/12/20 07:05:52;;;;;;;24.83;7.55;;;;;;;2.65;100.00;101287.94;10414745;28;20072;-72
2023/12/20 07:10:53;;;;;;;37.85;10.75;;;;;;;2.81;100.00;101282.59;10414670;28;20072;-71
2023/12/20 07:15:53;;;;;;;26.33;13.38;;;;;;;2.69;100.00;101250.13;10414117;28;20037;-71
2023/12/20 07:20:55;;;;;;;86.45;11.40;;;;;;;3.10;100.00;101277.31;10414668;28;20025;-72
2023/12/20 07:25:56;;;;;;;30.58;9.75;;;;;;;3.25;100.00;101276.34;10413925;28;20042;-71
2023/12/20 07:30:57;;;;;;;41.47;11.57;;;;;;;3.34;100.00;101277.53;10414513;28;20505;-72
2023/12/20 07:35:59;;;;;;;12.70;7.88;;;;;;;3.32;100.00;101266.28;10412837;28;20050;-72
2023/12/20 07:41:00;;;;;;;28.83;6.70;;;;;;;3.20;100.00;101268.78;10413134;28;20057;-72
2023/12/20 07:46:10;;;;;;;26.10;5.50;;;;;;;3.09;100.00;101270.38;10413890;28;20548;-72
2023/12/20 07:51:11;;;;;;;6.35;4.03;;;;;;;3.05;100.00;101264.50;10413162;28;20425;-72
2023/12/20 07:56:19;;;;;;;6.45;4.38;;;;;;;3.18;100.00;101252.25;10413628;28;20045;-72
2023/12/20 08:01:20;;;;;;;9.35;5.22;;;;;;;3.25;100.00;101236.94;10413813;28;20041;-72
2023/12/20 08:06:21;;;;;;;8.68;5.70;;;;;;;3.27;100.00;101194.84;10413368;28;20045;-71
2023/12/20 08:11:22;;;;;;;10.20;6.70;;;;;;;4.06;100.00;101241.25;10413219;28;20117;-71
2023/12/20 08:16:23;;;;;;;12.02;7.82;;;;;;;4.10;100.00;101191.00;10413211;28;20128;-73
2023/12/20 08:21:23;;;;;;;20.73;8.90;;;;;;;4.61;100.00;101211.16;10413720;28;20462;-72
2023/12/20 08:26:24;;;;;;;11.55;7.50;;;;;;;4.85;100.00;101184.03;10412264;28;20505;-72
2023/12/20 08:31:26;;;;;;;12.38;6.88;;;;;;;5.13;100.00;101146.81;10412762;28;20071;-72
2023/12/20 08:36:26;;;;;;;10.75;7.40;;;;;;;5.59;100.00;101176.81;10412410;28;20033;-71
2023/12/20 08:41:27;;;;;;;12.82;7.45;;;;;;;6.05;100.00;101176.81;10420870;28;20042;-72
2023/12/20 08:46:28;;;;;;;11.90;6.82;;;;;;;6.30;100.00;101133.53;10420044;28;20061;-72
2023/12/20 08:51:29;;;;;;;8.40;6.03;;;;;;;6.71;100.00;101126.75;10420397;28;20037;-72
2023/12/20 08:56:29;;;;;;;12.63;8.35;;;;;;;7.00;100.00;101111.19;10419720;28;20045;-72
2023/12/20 09:01:30;;;;;;;13.05;7.32;;;;;;;7.36;100.00;101118.81;10419688;28;20041;-75
2023/12/20 09:06:31;;;;;;;11.18;7.20;;;;;;;7.63;100.00;101111.22;10419477;28;20069;-72
2023/12/20 09:11:32;;;;;;;11.00;7.20;;;;;;;7.62;99.58;101098.13;10419623;28;20099;-71
2023/12/20 09:16:33;;;;;;;11.32;7.30;;;;;;;7.62;100.00;101072.50;10418653;28;20045;-73
2023/12/20 09:21:33;;;;;;;10.43;6.57;;;;;;;7.92;100.00;101071.69;10419242;28;20128;-73
2023/12/20 09:26:34;;;;;;;16.38;7.65;;;;;;;8.17;100.00;101070.38;10418763;28;20416;-72
2023/12/20 09:31:36;;;;;;;11.15;6.32;;;;;;;7.96;99.41;101008.78;10418371;28;20072;-72
2023/12/20 09:36:40;;;;;;;10.50;6.47;;;;;;;8.44;99.15;101058.38;10418389;28;20057;-72
2023/12/20 09:41:46;;;;;;;8.25;5.05;;;;;;;8.64;96.79;101052.09;10417962;28;20073;-72
2023/12/20 09:46:50;;;;;;;9.13;5.35;;;;;;;8.69;96.05;101052.53;10417871;28;20095;-73
2023/12/20 09:51:52;;;;;;;6.07;4.13;;;;;;;8.80;95.77;101051.56;10416801;28;20081;-71
2023/12/20 09:56:53;;;;;;;7.15;4.65;;;;;;;8.81;94.05;101047.09;10418210;28;20139;-72
2023/12/20 10:01:56;;;;;;;7.03;3.95;;;;;;;8.78;93.07;101034.16;10417890;28;20091;-72
2023/12/20 10:07:03;;;;;;;6.77;3.67;;;;;;;8.83;92.01;101031.91;10417590;28;20048;-72
2023/12/20 10:12:05;;;;;;;6.57;3.92;;;;;;;8.95;92.54;101020.19;10417497;28;20094;-73
2023/12/20 10:17:06;;;;;;;6.93;3.85;;;;;;;9.14;92.70;101022.81;10417045;28;20467;-73
2023/12/20 10:22:07;;;;;;;6.80;3.85;;;;;;;9.13;92.38;101017.66;10417059;28;20037;-73
2023/12/20 10:27:08;;;;;;;8.75;3.95;;;;;;;9.12;91.03;101016.84;10417332;28;20037;-73
2023/12/20 10:32:22;;;;;;;7.13;3.90;;;;;;;8.78;92.63;100971.41;10416693;28;20033;-73
2023/12/20 10:37:23;;;;;;;5.53;3.28;;;;;;;9.07;92.78;100997.03;10415549;28;20487;-73
2023/12/20 10:42:27;;;;;;;7.35;3.63;;;;;;;8.99;92.76;101005.69;10414644;28;20042;-72
2023/12/20 10:47:30;;;;;;;6.22;2.72;;;;;;;8.77;92.81;101001.53;10415996;28;20120;-72
2023/12/20 10:52:34;;;;;;;6.73;3.30;;;;;;;8.66;93.65;101012.25;10415771;28;20045;-72
2023/12/20 10:57:36;;;;;;;7.90;3.10;;;;;;;8.51;94.04;101011.81;10415116;28;20517;-72
2023/12/20 11:02:40;;;;;;;4.80;3.65;;;;;;;8.27;94.38;101020.13;10415230;28;20049;-73
2023/12/20 11:07:50;;;;;;;7.05;3.70;;;;;;;7.98;95.29;100983.00;10415010;28;20049;-73
2023/12/20 11:13:10;;;;;;;6.20;3.97;;;;;;;7.76;96.08;100968.19;10415749;28;20045;-73
2023/12/20 11:18:11;;;;;;;7.25;3.75;;;;;;;8.18;97.14;101024.41;10415298;28;20045;-73
2023/12/20 11:23:13;;;;;;;7.53;4.13;;;;;;;7.88;98.65;101033.25;10414016;28;20064;-73
2023/12/20 11:28:14;;;;;;;7.40;4.28;;;;;;;7.52;99.92;100982.56;10413995;28;20124;-73
2023/12/20 11:33:16;;;;;;;5.53;3.70;;;;;;;7.65;100.00;101032.56;10414394;28;20584;-74
2023/12/20 11:38:17;;;;;;;6.05;3.45;;;;;;;7.31;100.00;101000.28;10414316;28;20061;-73
2023/12/20 11:43:31;;;;;;;8.75;3.75;;;;;;;7.39;100.00;101028.69;10413368;28;20045;-73
2023/12/20 11:48:34;;;;;;;5.25;3.67;;;;;;;7.07;100.00;101008.47;10413209;28;20041;-73
2023/12/20 11:53:36;;;;;;;5.38;3.58;;;;;;;7.00;100.00;101018.72;10413061;28;20042;-73
2023/12/20 11:58:37;;;;;;;6.22;3.60;;;;;;;6.91;100.00;101010.72;10413581;28;20045;-73
2023/12/20 12:03:38;;;;;;;10.23;4.38;;;;;;;6.91;100.00;101019.50;10412931;28;20043;-74
2023/12/20 12:08:39;;;;;;;9.55;4.13;;;;;;;6.85;100.00;101020.84;10411739;28;20521;-73
2023/12/20 12:13:40;;;;;;;8.55;3.95;;;;;;;6.48;100.00;100977.31;10412434;28;20037;-72
2023/12/20 12:18:41;;;;;;;5.80;3.70;;;;;;;6.67;100.00;101017.09;10412563;28;20045;-73
2023/12/20 12:23:42;;;;;;;5.25;3.40;;;;;;;6.58;100.00;101017.81;10412484;28;20046;-74
2023/12/20 12:28:43;;;;;;;8.38;3.95;;;;;;;6.53;100.00;101015.56;10390278;28;20047;-73
2023/12/20 12:33:44;;;;;;;6.78;4.28;;;;;;;6.38;100.00;100987.78;10285198;28;20128;-73
2023/12/20 12:38:45;;;;;;;8.30;4.25;;;;;;;6.50;100.00;101009.69;10269757;28;20055;-73
2023/12/20 12:43:45;;;;;;;12.30;5.15;;;;;;;6.15;100.00;100953.53;10290095;28;20047;-72
2023/12/20 12:48:46;;;;;;;11.05;6.15;;;;;;;6.44;100.00;101004.94;10243780;28;20039;-73
2023/12/20 12:53:47;;;;;;;7.38;4.38;;;;;;;6.47;100.00;101015.22;10276800;28;20043;-73
2023/12/20 12:58:48;;;;;;;7.93;3.97;;;;;;;6.37;100.00;100992.22;10265801;28;20052;-71
2023/12/20 13:03:48;;;;;;;10.27;4.50;;;;;;;6.40;100.00;100989.34;10272103;28;20051;-70
2023/12/20 13:08:50;;;;;;;7.78;3.60;;;;;;;6.32;100.00;100981.19;10244661;28;20039;-70
2023/12/20 13:13:50;;;;;;;5.13;3.13;;;;;;;6.38;100.00;100995.69;10245056;28;20105;-70
2023/12/20 13:18:51;;;;;;;6.57;3.30;;;;;;;6.33;100.00;100992.59;10244093;28;20447;-70
2023/12/20 13:23:53;;;;;;;16.40;4.18;;;;;;;6.29;100.00;100996.44;10245963;28;20130;-70
2023/12/20 13:28:54;;;;;;;10.65;4.40;;;;;;;6.30;100.00;100991.03;10250432;28;20039;-69
2023/12/20 13:33:55;;;;;;;6.35;3.75;;;;;;;6.29;100.00;100989.38;10278372;28;20049;-71
2023/12/20 13:38:56;;;;;;;6.43;3.53;;;;;;;6.15;100.00;100958.81;10299612;28;20067;-72
2023/12/20 13:43:57;;;;;;;7.55;3.25;;;;;;;6.21;100.00;100962.75;10265932;28;20039;-71
2023/12/20 13:48:58;;;;;;;7.90;3.30;;;;;;;6.36;100.00;100971.22;10297793;28;20043;-71
2023/12/20 13:53:59;;;;;;;4.63;3.00;;;;;;;6.31;100.00;100958.44;10265083;28;20433;-71
2023/12/20 13:58:59;;;;;;;4.90;2.88;;;;;;;6.45;100.00;100965.19;10248082;28;20047;-71
2023/12/20 14:04:01;;;;;;;7.72;3.38;;;;;;;6.17;100.00;100908.59;10404857;28;20048;-71
2023/12/20 14:09:02;;;;;;;5.53;2.83;;;;;;;6.55;100.00;100965.28;10410068;28;20040;-70
2023/12/20 14:14:04;;;;;;;5.22;2.92;;;;;;;6.55;100.00;100954.72;10250039;28;20470;-73
2023/12/20 14:19:07;;;;;;;5.50;3.90;;;;;;;6.56;100.00;100964.31;10319955;28;20152;-70
2023/12/20 14:24:07;;;;;;;7.15;4.00;;;;;;;6.57;100.00;100945.72;10305755;28;20068;-71
2023/12/20 14:29:09;;;;;;;6.00;3.88;;;;;;;6.46;100.00;100923.81;10250841;28;20048;-72
2023/12/20 14:34:09;;;;;;;5.38;3.00;;;;;;;6.37;100.00;100907.78;10317160;28;20049;-72
2023/12/20 14:39:12;;;;;;;6.38;3.00;;;;;;;6.52;100.00;100929.44;10356767;28;20133;-72
2023/12/20 14:44:13;;;;;;;5.55;3.30;;;;;;;5.98;100.00;100832.75;10321190;28;20066;-72
2023/12/20 14:49:14;;;;;;;4.55;2.80;;;;;;;6.57;100.00;100923.75;10358468;28;20052;-73
2023/12/20 14:54:15;;;;;;;5.32;3.20;;;;;;;6.62;100.00;100925.03;10309514;28;20041;-72
2023/12/20 14:59:15;;;;;;;6.80;4.30;;;;;;;6.62;100.00;100911.03;10352223;28;20055;-71
2023/12/20 15:04:16;;;;;;;8.30;4.97;;;;;;;6.33;100.00;100873.84;10270261;28;20093;-70
2023/12/20 15:09:19;;;;;;;9.95;4.30;;;;;;;6.52;100.00;100920.66;10306850;28;20049;-70
2023/12/20 15:14:20;;;;;;;8.88;5.65;;;;;;;6.51;100.00;100911.91;10414982;28;20038;-71
2023/12/20 15:19:21;;;;;;;11.73;6.53;;;;;;;6.43;100.00;100898.50;10414457;28;20053;-74
2023/12/20 15:24:28;;;;;;;11.60;7.38;;;;;;;6.46;100.00;100907.97;10338825;28;20499;-72
2023/12/20 15:29:30;;;;;;;14.10;9.10;;;;;;;6.37;100.00;100899.00;10208222;29;20050;-69
2023/12/20 15:34:31;;;;;;;18.20;13.68;;;;;;;6.38;100.00;100903.34;10208007;29;20043;-69
2023/12/20 15:39:32;;;;;;;20.30;13.98;;;;;;;6.07;100.00;100883.91;10289278;28;20486;-69
2023/12/20 15:44:33;;;;;;;21.73;14.57;;;;;;;5.88;100.00;100895.09;10414360;28;20068;-70
2023/12/20 15:49:34;;;;;;;22.08;16.45;;;;;;;5.54;100.00;100889.06;10412774;28;20558;-70
2023/12/20 15:54:37;;;;;;;25.85;15.85;;;;;;;4.90;100.00;100811.50;10413715;28;20045;-71
2023/12/20 15:59:38;;;;;;;21.70;14.63;;;;;;;5.03;100.00;100861.44;10413189;28;20045;-71
2023/12/20 16:04:39;;;;;;;22.95;14.40;;;;;;;4.60;100.00;100812.09;10413068;28;20068;-72
2023/12/20 16:09:40;;;;;;;20.60;13.60;;;;;;;4.87;100.00;100851.22;10406239;28;20061;-73
2023/12/20 16:14:41;;;;;;;22.63;14.27;;;;;;;4.62;100.00;100839.13;10372787;28;20433;-73
2023/12/20 16:19:42;;;;;;;22.48;14.82;;;;;;;4.21;100.00;100766.00;10405717;28;20045;-71
2023/12/20 16:24:42;;;;;;;26.25;15.18;;;;;;;4.80;100.00;100855.31;10246334;28;20043;-73
2023/12/20 16:29:43;;;;;;;19.85;14.18;;;;;;;4.79;100.00;100858.91;10412307;28;20044;-72
2023/12/20 16:34:44;;;;;;;16.30;11.68;;;;;;;4.49;100.00;100793.69;10411977;28;20569;-73
2023/12/20 16:39:45;;;;;;;21.40;11.80;;;;;;;4.79;100.00;100829.97;10205452;29;20073;-74
2023/12/20 16:44:46;;;;;;;18.33;12.15;;;;;;;4.86;100.00;100830.31;10205065;29;20052;-73
2023/12/20 16:49:47;;;;;;;16.67;10.70;;;;;;;4.86;100.00;100819.78;10204495;29;20074;-71
2023/12/20 16:54:47;;;;;;;14.93;10.55;;;;;;;4.87;100.00;100819.66;10257720;28;20040;-71
2023/12/20 16:59:48;;;;;;;14.65;10.10;;;;;;;4.87;100.00;100818.81;10233445;28;20509;-71
2023/12/20 17:04:49;;;;;;;16.25;9.77;;;;;;;4.62;100.00;100765.47;10364981;28;20050;-72
2023/12/20 17:09:51;;;;;;;19.95;10.45;;;;;;;5.01;100.00;100802.78;10307215;28;20041;-72
2023/12/20 17:14:51;;;;;;;19.13;11.75;;;;;;;5.02;100.00;100797.38;10243543;28;20098;-72
2023/12/20 17:19:53;;;;;;;28.65;10.38;;;;;;;4.98;100.00;100795.13;10220394;28;20121;-70
2023/12/20 17:24:54;;;;;;;18.90;10.88;;;;;;;4.68;100.00;100732.56;10306515;28;20075;-70
2023/12/20 17:29:54;;;;;;;19.30;11.50;;;;;;;4.88;100.00;100754.69;10248901;28;20076;-71
2023/12/20 17:34:55;;;;;;;18.83;9.07;;;;;;;5.11;100.00;100794.97;10417999;28;20041;-71
2023/12/20 17:39:56;;;;;;;15.57;9.35;;;;;;;5.04;100.00;100771.78;10358762;28;20076;-71
2023/12/20 17:44:57;;;;;;;26.05;10.75;;;;;;;5.05;100.00;100785.78;10289136;28;20411;-71
2023/12/20 17:49:58;;;;;;;15.85;10.38;;;;;;;5.01;100.00;100787.81;10209173;29;20050;-70
2023/12/20 17:54:58;;;;;;;21.73;13.15;;;;;;;4.94;100.00;100765.56;10210858;29;20074;-70
2023/12/20 18:00:18;;;;;;;21.98;12.93;;;;;;;5.00;100.00;100788.78;10209060;29;20043;-69
2023/12/20 18:05:20;;;;;;;21.88;11.23;;;;;;;4.65;100.00;100770.47;10210230;29;20130;-70
2023/12/20 18:10:21;;;;;;;15.77;8.98;;;;;;;4.51;100.00;100768.91;10233018;28;20051;-70
2023/12/20 18:15:22;;;;;;;12.23;6.57;;;;;;;4.32;100.00;100760.78;10335300;28;20505;-70
2023/12/20 18:20:23;;;;;;;15.65;7.43;;;;;;;3.92;100.00;100740.13;10209800;29;20050;-72
2023/12/20 18:25:23;;;;;;;13.23;6.90;;;;;;;3.99;100.00;100766.78;10209817;29;20109;-70
2023/12/20 18:30:24;;;;;;;14.48;6.70;;;;;;;3.99;100.00;100759.75;10209522;29;20043;-69
2023/12/20 18:35:26;;;;;;;11.00;5.68;;;;;;;4.09;100.00;100767.78;10289249;28;20071;-69
2023/12/20 18:40:28;;;;;;;9.85;5.05;;;;;;;3.81;100.00;100705.94;10243981;28;20067;-69
2023/12/20 18:45:29;;;;;;;7.38;4.43;;;;;;;4.11;100.00;100740.41;10254024;28;20045;-70
2023/12/20 18:50:30;;;;;;;7.28;4.85;;;;;;;4.17;100.00;100749.63;10309846;28;20539;-69
2023/12/20 18:55:31;;;;;;;13.07;4.50;;;;;;;3.88;100.00;100691.38;10207981;29;20047;-69
2023/12/20 19:00:32;;;;;;;6.10;4.05;;;;;;;4.15;100.00;100721.78;10208659;29;20079;-69
2023/12/20 19:05:33;;;;;;;7.88;4.35;;;;;;;3.95;100.00;100728.53;10208796;29;20089;-70
2023/12/20 19:10:33;;;;;;;7.95;4.65;;;;;;;3.63;100.00;100658.25;10208190;29;20551;-70
2023/12/20 19:15:34;;;;;;;8.65;4.55;;;;;;;3.86;100.00;100707.28;10207674;29;20040;-70
2023/12/20 19:20:35;;;;;;;12.30;5.10;;;;;;;3.79;100.00;100686.81;10207857;29;20134;-70
2023/12/20 19:25:36;;;;;;;5.63;3.58;;;;;;;3.70;100.00;100679.63;10207541;29;20050;-71
2023/12/20 19:30:37;;;;;;;6.78;4.32;;;;;;;3.35;100.00;100628.78;10207815;29;20170;-68
2023/12/20 19:35:38;;;;;;;7.88;4.25;;;;;;;3.30;100.00;100632.72;10207559;29;20055;-69
2023/12/20 19:40:39;;;;;;;8.00;4.15;;;;;;;3.42;100.00;100671.19;10206584;28;20063;-70
2023/12/20 19:45:40;;;;;;;7.85;4.75;;;;;;;2.61;100.00;100567.75;10208032;29;20147;-69
2023/12/20 19:50:40;;;;;;;7.95;5.15;;;;;;;3.22;100.00;100664.78;10206990;29;20130;-69
2023/12/20 19:55:41;;;;;;;8.43;5.30;;;;;;;3.07;100.00;100661.47;10206888;29;20046;-70
2023/12/20 20:00:43;;;;;;;19.90;5.70;;;;;;;2.42;100.00;100606.72;10207326;29;20055;-70
2023/12/20 20:05:44;;;;;;;8.45;4.80;;;;;;;2.67;100.00;100672.22;10206828;29;20044;-70
2023/12/20 20:10:45;;;;;;;9.23;5.53;;;;;;;1.94;100.00;100572.53;10206580;29;20039;-69
2023/12/20 20:15:47;;;;;;;20.50;5.93;;;;;;;2.34;100.00;100666.75;10206472;29;20135;-69
2023/12/20 20:20:48;;;;;;;6.80;4.88;;;;;;;2.13;100.00;100669.91;10206090;29;20488;-69
2023/12/20 20:25:49;;;;;;;15.18;5.15;;;;;;;1.33;100.00;100567.94;10208523;28;20127;-69
2023/12/20 20:30:49;;;;;;;9.63;5.65;;;;;;;1.50;100.00;100610.50;10260322;28;20058;-69
2023/12/20 20:35:50;;;;;;;9.52;5.63;;;;;;;1.50;100.00;100607.88;10211602;29;20048;-69
2023/12/20 20:40:54;;;;;;;9.68;5.70;;;;;;;1.79;100.00;100668.75;10212294;28;20059;-69
2023/12/20 20:45:55;;;;;;;23.58;6.40;;;;;;;1.81;100.00;100649.38;10212240;29;20082;-69
2023/12/20 20:50:58;;;;;;;13.73;6.85;;;;;;;2.07;100.00;100656.41;10212631;29;20054;-69
2023/12/20 20:55:59;;;;;;;16.13;6.93;;;;;;;2.18;100.00;100652.06;10212022;29;20071;-70
2023/12/20 21:01:00;;;;;;;11.20;6.22;;;;;;;2.28;100.00;100640.00;10211728;29;20094;-69
2023/12/20 21:06:00;;;;;;;10.73;6.47;;;;;;;2.19;100.00;100582.16;10212639;29;20059;-69
2023/12/20 21:11:01;;;;;;;10.38;7.18;;;;;;;2.36;100.00;100588.81;10212021;29;20059;-69
2023/12/20 21:16:03;;;;;;;11.23;6.93;;;;;;;2.58;100.00;100611.75;10211282;29;20204;-69
2023/12/20 21:21:04;;;;;;;21.20;6.57;;;;;;;2.75;100.00;100632.31;10209856;29;20055;-69
2023/12/20 21:26:05;;;;;;;87.30;8.02;;;;;;;2.42;100.00;100583.13;10211989;29;20150;-69
2023/12/20 21:31:06;;;;;;;45.20;7.55;;;;;;;2.60;100.00;100625.56;10209659;29;20039;-69
2023/12/20 21:36:07;;;;;;;83.88;8.75;;;;;;;2.49;100.00;100623.72;10212370;29;20044;-72
2023/12/20 21:41:08;;;;;;;81.90;9.30;;;;;;;2.39;100.00;100612.19;10211506;29;20110;-69
2023/12/20 21:46:09;;;;;;;41.05;8.50;;;;;;;2.47;100.00;100621.19;10211285;29;20075;-69
2023/12/20 21:51:10;;;;;;;74.03;8.88;;;;;;;2.48;100.00;100619.41;10210299;29;20048;-69
2023/12/20 21:56:11;;;;;;;96.30;9.93;;;;;;;2.09;100.00;100540.03;10210743;29;20056;-70
2023/12/20 22:01:12;;;;;;;155.77;11.77;;;;;;;2.49;100.00;100600.13;10210416;29;20097;-69
2023/12/20 22:06:12;;;;;;;103.18;10.65;;;;;;;2.55;100.00;100602.31;10209711;29;20044;-69
2023/12/20 22:11:13;;;;;;;35.55;8.90;;;;;;;2.37;100.00;100575.59;10210231;29;20044;-69
2023/12/20 22:16:15;;;;;;;21.77;8.95;;;;;;;2.42;100.00;100586.63;10210708;29;20040;-70
2023/12/20 22:21:16;;;;;;;15.70;8.90;;;;;;;2.41;100.00;100578.84;10210422;29;20142;-69
2023/12/20 22:26:16;;;;;;;12.40;9.38;;;;;;;2.40;100.00;100574.56;10267942;28;20131;-70
2023/12/20 22:31:17;;;;;;;10.63;8.55;;;;;;;2.13;100.00;100512.66;10209712;29;20161;-69
2023/12/20 22:36:18;;;;;;;10.48;8.50;;;;;;;2.28;100.00;100529.91;10209809;28;20101;-69
2023/12/20 22:41:19;;;;;;;12.43;9.10;;;;;;;2.31;100.00;100518.38;10209005;29;20052;-70
2023/12/20 22:46:20;;;;;;;12.73;9.10;;;;;;;2.31;100.00;100501.81;10207666;28;20155;-69
2023/12/20 22:51:21;;;;;;;15.30;9.10;;;;;;;2.69;100.00;100559.31;10208910;29;20135;-69